CA-0701 weather

CLOSED New Richmond Airport
New Richmond, Quebec, Canada

Public forecast

Using degrees Celsius for public forecast. Weather courtesy of forecast.io.

METAR (pilot weather report)

Closest report is Bathurst Airport, 33.4 nm (61.8 km) S. Retrieved 2019/05/23 12:00 UTC (29 minutes ago):

CZBF 231200Z AUTO VRB04KT 9SM CLR 10/04 A3019 RMK PRESFR SLP225

TAF (pilot weather forecast)

Closest forecast is Bathurst Airport, 33.4 nm (61.8 km) S. Retrieved 2019/05/23 09:42 UTC (3 hours ago):

TAF CZBF 230838Z 2309/2321 VRB03KT P6SM SKC FM231200 30007KT P6SM BKN200 BECMG 2313/2315 36005KT FM232000 08005KT P6SM SCT050 RMK FCST BASED ON AUTO OBS. NXT FCST BY 231400Z